createdAt,value
2023-04-17T00:00:19.852Z,10.80
2023-04-17T00:02:47.202Z,10.30
2023-04-17T00:05:14.168Z,10.40
2023-04-17T00:07:41.341Z,10.30
2023-04-17T00:10:09.806Z,10.70
2023-04-17T00:12:45.523Z,10.30
2023-04-17T00:15:12.349Z,11.90
2023-04-17T00:17:39.329Z,10.40
2023-04-17T00:20:13.474Z,10.50
2023-04-17T00:22:40.382Z,10.30
2023-04-17T00:25:10.389Z,11.90
2023-04-17T00:27:37.439Z,10.30
2023-04-17T00:30:04.751Z,10.30
2023-04-17T00:32:31.657Z,10.30
2023-04-17T00:34:58.501Z,10.60
2023-04-17T00:37:25.393Z,10.20
2023-04-17T00:39:52.200Z,10.20
2023-04-17T00:42:19.227Z,10.20
2023-04-17T00:44:46.032Z,10.20
2023-04-17T00:47:13.569Z,10.30
2023-04-17T00:49:40.765Z,10.60
2023-04-17T00:52:07.841Z,10.20
2023-04-17T00:54:35.545Z,10.20
2023-04-17T00:57:03.355Z,10.30
2023-04-17T00:59:32.691Z,10.20
2023-04-17T01:02:00.278Z,10.90
2023-04-17T01:04:27.422Z,10.30
2023-04-17T01:06:54.372Z,10.40
2023-04-17T01:09:21.266Z,10.20
2023-04-17T01:11:48.086Z,10.70
2023-04-17T01:14:15.491Z,10.20
2023-04-17T01:16:44.661Z,10.20
2023-04-17T01:19:15.966Z,10.50
2023-04-17T01:21:42.957Z,10.40
2023-04-17T01:24:10.923Z,10.10
2023-04-17T01:26:38.602Z,10.20
2023-04-17T01:29:05.535Z,11.00
2023-04-17T01:31:32.688Z,10.80
2023-04-17T01:34:00.649Z,10.90
2023-04-17T01:36:28.552Z,10.20
2023-04-17T01:38:55.499Z,10.20
2023-04-17T01:41:22.590Z,10.20
2023-04-17T01:43:50.336Z,10.10
2023-04-17T01:46:17.656Z,10.70
2023-04-17T01:48:44.574Z,10.10
2023-04-17T01:51:11.392Z,10.60
2023-04-17T01:53:39.743Z,10.10
2023-04-17T01:56:07.192Z,10.30
2023-04-17T01:59:31.614Z,10.10
2023-04-17T02:01:59.023Z,10.10
2023-04-17T02:04:26.209Z,10.90
2023-04-17T02:06:53.640Z,10.10
2023-04-17T02:09:20.636Z,10.10
2023-04-17T02:11:47.576Z,10.10
2023-04-17T02:14:14.635Z,10.10
2023-04-17T02:16:46.103Z,10.70
2023-04-17T02:19:13.776Z,10.00
2023-04-17T02:21:40.767Z,10.10
2023-04-17T02:24:07.677Z,11.10
2023-04-17T02:26:34.624Z,10.00
2023-04-17T02:29:01.593Z,10.00
2023-04-17T02:31:28.608Z,10.00
2023-04-17T02:33:55.514Z,10.10
2023-04-17T02:36:22.425Z,10.50
2023-04-17T02:38:49.291Z,10.00
2023-04-17T02:41:16.173Z,10.00
2023-04-17T02:43:43.880Z,10.00
2023-04-17T02:46:11.345Z,10.00
2023-04-17T02:48:38.271Z,10.00
2023-04-17T02:51:05.333Z,10.00
2023-04-17T02:53:32.397Z,10.00
2023-04-17T02:55:59.244Z,10.00
2023-04-17T02:58:26.748Z,10.60
2023-04-17T03:01:00.916Z,9.90
2023-04-17T03:03:34.924Z,10.00
2023-04-17T03:06:05.146Z,9.90
2023-04-17T03:08:35.542Z,9.90
2023-04-17T03:11:03.458Z,9.90
2023-04-17T03:13:30.831Z,9.90
2023-04-17T03:15:58.612Z,10.30
2023-04-17T03:18:25.947Z,9.90
2023-04-17T03:20:54.104Z,9.90
2023-04-17T03:23:21.011Z,10.50
2023-04-17T03:25:48.431Z,10.30
2023-04-17T03:28:16.375Z,10.60
2023-04-17T03:30:43.200Z,9.90
2023-04-17T03:33:10.234Z,9.90
2023-04-17T03:35:37.578Z,9.80
2023-04-17T03:38:07.280Z,10.20
2023-04-17T03:40:34.552Z,9.80
2023-04-17T03:43:01.908Z,9.80
2023-04-17T03:45:30.456Z,9.80
2023-04-17T03:47:57.413Z,10.10
2023-04-17T03:50:24.359Z,10.50
2023-04-17T03:52:55.926Z,10.60
2023-04-17T03:55:25.392Z,9.80
2023-04-17T03:57:53.339Z,9.80
2023-04-17T04:00:21.327Z,9.90
2023-04-17T04:02:56.012Z,9.80
2023-04-17T04:05:27.623Z,9.80
2023-04-17T04:07:56.187Z,9.80
2023-04-17T04:10:29.763Z,10.30
2023-04-17T04:12:57.313Z,9.80
2023-04-17T04:15:25.254Z,10.70
2023-04-17T04:17:56.526Z,9.80
2023-04-17T04:20:23.518Z,9.80
2023-04-17T04:22:59.317Z,9.70
2023-04-17T04:25:26.640Z,10.40
2023-04-17T04:28:10.735Z,9.70
2023-04-17T04:30:38.777Z,9.80
2023-04-17T04:33:14.898Z,10.50
2023-04-17T04:35:42.059Z,9.60
2023-04-17T04:38:11.267Z,9.50
2023-04-17T04:40:38.672Z,9.50
2023-04-17T04:43:07.533Z,9.50
2023-04-17T04:45:39.845Z,10.20
2023-04-17T04:48:06.881Z,10.40
2023-04-17T04:50:34.141Z,9.50
2023-04-17T04:53:01.584Z,9.50
2023-04-17T04:55:40.098Z,9.50
2023-04-17T04:58:06.960Z,10.30
2023-04-17T05:00:35.755Z,10.60
2023-04-17T05:03:04.311Z,9.50
2023-04-17T05:05:31.380Z,9.80
2023-04-17T05:07:58.896Z,9.60
2023-04-17T05:10:31.132Z,11.30
2023-04-17T05:13:01.309Z,10.00
2023-04-17T05:15:28.257Z,9.60
2023-04-17T05:17:56.065Z,9.60
2023-04-17T05:20:26.328Z,10.20
2023-04-17T05:22:56.874Z,10.00
2023-04-17T05:25:23.746Z,9.60
2023-04-17T05:27:51.624Z,10.30
2023-04-17T05:30:18.652Z,9.70
2023-04-17T05:32:50.511Z,9.70
2023-04-17T05:35:30.688Z,9.70
2023-04-17T05:37:57.569Z,9.60
2023-04-17T05:40:24.604Z,9.60
2023-04-17T05:42:51.487Z,10.40
2023-04-17T05:45:19.129Z,10.50
2023-04-17T05:47:46.329Z,9.60
2023-04-17T05:50:14.868Z,9.60
2023-04-17T05:52:42.426Z,9.60
2023-04-17T05:55:11.417Z,9.60
2023-04-17T05:57:39.090Z,9.60
2023-04-17T06:00:13.180Z,9.80
2023-04-17T06:02:49.932Z,9.60
2023-04-17T06:05:26.550Z,10.60
2023-04-17T06:07:53.764Z,9.70
2023-04-17T06:10:22.444Z,10.90
2023-04-17T06:12:50.035Z,9.70
2023-04-17T06:15:16.927Z,9.80
2023-04-17T06:17:44.001Z,9.70
2023-04-17T06:20:11.373Z,9.70
2023-04-17T06:22:39.857Z,9.70
2023-04-17T06:25:08.142Z,9.70
2023-04-17T06:27:36.757Z,9.80
2023-04-17T06:30:05.639Z,10.70
2023-04-17T06:32:42.791Z,9.80
2023-04-17T06:35:11.304Z,10.40
2023-04-17T06:37:43.723Z,10.70
2023-04-17T06:40:12.362Z,9.80
2023-04-17T06:42:40.440Z,9.90
2023-04-17T06:45:12.114Z,10.20
2023-04-17T06:47:39.177Z,9.90
2023-04-17T06:50:06.799Z,9.90
2023-04-17T06:52:34.714Z,10.00
2023-04-17T06:55:02.375Z,10.90
2023-04-17T06:57:29.256Z,10.00
2023-04-17T06:59:56.154Z,10.00
2023-04-17T07:02:23.216Z,10.00
2023-04-17T07:04:50.404Z,10.40
2023-04-17T07:07:17.966Z,10.10
2023-04-17T07:09:45.879Z,10.10
2023-04-17T07:12:12.700Z,11.20
2023-04-17T07:14:40.673Z,10.10
2023-04-17T07:17:07.688Z,10.10
2023-04-17T07:19:34.826Z,10.00
2023-04-17T07:22:01.736Z,10.00
2023-04-17T07:24:28.615Z,10.00
2023-04-17T07:26:56.944Z,10.80
2023-04-17T07:29:23.822Z,10.20
2023-04-17T07:31:50.709Z,10.80
2023-04-17T07:34:17.582Z,10.20
2023-04-17T07:36:45.136Z,10.60
2023-04-17T07:39:12.301Z,10.10
2023-04-17T07:41:39.267Z,10.00
2023-04-17T07:44:06.515Z,10.00
2023-04-17T07:46:33.421Z,10.10
2023-04-17T07:49:00.329Z,10.10
2023-04-17T07:51:27.742Z,10.60
2023-04-17T07:53:54.624Z,10.20
2023-04-17T07:56:21.519Z,10.20
2023-04-17T07:58:51.938Z,10.10
2023-04-17T08:01:18.820Z,10.10
2023-04-17T08:03:46.067Z,10.10
2023-04-17T08:06:13.155Z,10.20
2023-04-17T08:08:40.059Z,10.40
2023-04-17T08:11:06.879Z,10.30
2023-04-17T08:13:35.780Z,10.30
2023-04-17T08:16:02.719Z,10.30
2023-04-17T08:18:29.641Z,10.30
2023-04-17T08:20:56.485Z,10.80
2023-04-17T08:23:23.365Z,12.10
2023-04-17T08:25:50.278Z,10.50
2023-04-17T08:28:17.204Z,10.40
2023-04-17T08:30:44.146Z,10.70
2023-04-17T08:33:13.470Z,10.70
2023-04-17T08:35:40.407Z,10.30
2023-04-17T08:38:08.329Z,11.80
2023-04-17T08:40:35.452Z,10.40
2023-04-17T08:43:03.166Z,10.60
2023-04-17T08:45:30.541Z,10.70
2023-04-17T08:47:57.675Z,11.80
2023-04-17T08:50:24.606Z,11.30
2023-04-17T08:52:52.846Z,10.80
2023-04-17T08:55:23.704Z,10.80
2023-04-17T08:58:03.595Z,10.80
2023-04-17T09:00:34.638Z,10.80
2023-04-17T09:03:04.139Z,10.80
2023-04-17T09:05:37.066Z,10.80
2023-04-17T09:08:10.090Z,10.90
2023-04-17T09:10:45.034Z,10.90
2023-04-17T09:13:14.799Z,11.00
2023-04-17T09:15:43.470Z,11.10
2023-04-17T09:18:27.845Z,11.00
2023-04-17T09:20:54.892Z,11.10
2023-04-17T09:23:23.487Z,11.10
2023-04-17T09:26:09.427Z,11.40
2023-04-17T09:28:39.682Z,11.20
2023-04-17T09:31:15.636Z,11.20
2023-04-17T09:34:05.542Z,11.30
2023-04-17T09:36:34.717Z,11.30
2023-04-17T09:39:16.208Z,11.40
2023-04-17T09:41:43.043Z,11.40
2023-04-17T09:44:12.478Z,11.50
2023-04-17T09:46:47.665Z,11.50
2023-04-17T09:49:34.113Z,11.50
2023-04-17T09:52:02.022Z,11.60
2023-04-17T09:54:31.577Z,11.70
2023-04-17T09:56:59.222Z,11.80
2023-04-17T09:59:26.716Z,11.80
2023-04-17T10:01:54.301Z,11.90
2023-04-17T10:04:22.381Z,11.90
2023-04-17T10:06:49.988Z,11.90
2023-04-17T10:09:16.974Z,12.00
2023-04-17T10:11:47.897Z,12.00
2023-04-17T10:14:42.887Z,12.10
2023-04-17T10:17:24.749Z,12.20
2023-04-17T10:19:51.962Z,12.20
2023-04-17T10:22:18.758Z,12.20
2023-04-17T10:24:47.344Z,12.30
2023-04-17T10:27:26.419Z,12.30
2023-04-17T10:30:00.807Z,12.20
2023-04-17T10:32:29.315Z,12.30
2023-04-17T10:35:04.534Z,12.30
2023-04-17T10:37:52.526Z,12.20
2023-04-17T10:40:24.450Z,12.20
2023-04-17T10:43:23.425Z,12.10
2023-04-17T10:46:10.204Z,12.10
2023-04-17T10:48:52.427Z,12.20
2023-04-17T10:51:29.021Z,12.20
2023-04-17T10:53:56.830Z,12.30
2023-04-17T10:56:38.669Z,12.20
2023-04-17T10:59:16.013Z,12.20
2023-04-17T11:01:49.330Z,12.10
2023-04-17T11:04:34.384Z,12.10
2023-04-17T11:07:01.556Z,12.10
2023-04-17T11:09:29.579Z,12.10
2023-04-17T11:12:01.816Z,12.20
2023-04-17T11:14:30.457Z,12.60
2023-04-17T11:16:57.676Z,12.20
2023-04-17T11:19:26.331Z,12.30
2023-04-17T11:21:57.244Z,12.30
2023-04-17T11:24:29.618Z,12.40
2023-04-17T11:26:59.708Z,12.40
2023-04-17T11:29:27.478Z,12.40
2023-04-17T11:31:56.358Z,12.50
2023-04-17T11:34:25.064Z,12.50
2023-04-17T11:37:01.526Z,12.50
2023-04-17T11:39:30.850Z,12.50
2023-04-17T11:41:57.966Z,12.50
2023-04-17T11:44:25.861Z,12.50
2023-04-17T11:46:54.285Z,12.50
2023-04-17T11:49:29.451Z,12.50
2023-04-17T11:51:58.919Z,12.50
2023-04-17T11:54:30.734Z,12.50
2023-04-17T11:57:06.199Z,12.40
2023-04-17T11:59:34.977Z,12.50
2023-04-17T12:02:02.504Z,12.50
2023-04-17T12:04:31.013Z,12.50
2023-04-17T12:06:59.665Z,12.50
2023-04-17T12:09:31.540Z,12.50
2023-04-17T12:12:03.886Z,12.40
2023-04-17T12:14:31.566Z,12.40
2023-04-17T12:16:59.739Z,12.50
2023-04-17T12:19:31.772Z,12.40
2023-04-17T12:21:59.697Z,12.50
2023-04-17T12:24:40.845Z,12.50
2023-04-17T12:27:07.682Z,12.50
2023-04-17T12:29:43.978Z,12.50
2023-04-17T12:32:12.527Z,12.50
2023-04-17T12:34:39.701Z,12.50
2023-04-17T12:37:06.603Z,12.60
2023-04-17T12:39:33.546Z,12.60
2023-04-17T12:42:00.408Z,12.70
2023-04-17T12:44:27.369Z,12.70
2023-04-17T12:46:54.255Z,12.70
2023-04-17T12:49:23.614Z,12.80
2023-04-17T12:51:51.364Z,12.80
2023-04-17T12:54:18.614Z,12.90
2023-04-17T12:56:45.531Z,12.90
2023-04-17T12:59:13.305Z,13.00
2023-04-17T13:01:40.367Z,12.90
2023-04-17T13:04:07.778Z,12.90
2023-04-17T13:06:34.911Z,12.90
2023-04-17T13:09:01.824Z,12.90
2023-04-17T13:11:28.709Z,12.90
2023-04-17T13:13:55.620Z,12.90
2023-04-17T13:16:22.500Z,12.90
2023-04-17T13:18:49.403Z,13.00
2023-04-17T13:21:16.220Z,13.40
2023-04-17T13:23:43.049Z,13.00
2023-04-17T13:26:09.902Z,13.00
2023-04-17T13:28:36.819Z,13.00
2023-04-17T13:31:03.664Z,13.00
2023-04-17T13:33:30.547Z,13.00
2023-04-17T13:35:57.424Z,13.00
2023-04-17T13:38:24.266Z,13.00
2023-04-17T13:40:54.245Z,13.10
2023-04-17T13:43:21.071Z,13.00
2023-04-17T13:45:49.816Z,13.00
2023-04-17T13:48:16.924Z,13.00
2023-04-17T13:50:43.822Z,13.00
2023-04-17T13:53:12.150Z,13.00
2023-04-17T13:55:39.202Z,13.00
2023-04-17T13:58:06.132Z,13.00
2023-04-17T14:00:33.053Z,13.10
2023-04-17T14:03:00.749Z,13.00
2023-04-17T14:05:27.813Z,13.10
2023-04-17T14:07:54.676Z,13.20
2023-04-17T14:10:21.562Z,13.20
2023-04-17T14:12:48.871Z,13.20
2023-04-17T14:15:16.513Z,13.30
2023-04-17T14:17:43.704Z,13.30
2023-04-17T14:20:11.814Z,13.20
2023-04-17T14:22:38.662Z,13.20
2023-04-17T14:25:06.154Z,13.10
2023-04-17T14:27:35.652Z,13.10
2023-04-17T14:30:02.738Z,13.00
2023-04-17T14:32:29.671Z,13.00
2023-04-17T14:34:57.026Z,13.20
2023-04-17T14:37:24.038Z,13.00
2023-04-17T14:39:50.888Z,13.00
2023-04-17T14:42:17.795Z,13.00
2023-04-17T14:44:44.638Z,13.10
2023-04-17T14:47:13.152Z,13.10
2023-04-17T14:49:40.216Z,13.10
2023-04-17T14:52:07.177Z,13.50
2023-04-17T14:54:34.213Z,13.20
2023-04-17T14:57:01.652Z,13.20
2023-04-17T14:59:28.734Z,13.20
2023-04-17T15:01:56.091Z,13.20
2023-04-17T15:04:23.275Z,13.20
2023-04-17T15:06:50.554Z,13.10
2023-04-17T15:09:17.396Z,13.10
2023-04-17T15:11:44.226Z,13.00
2023-04-17T15:14:11.252Z,13.00
2023-04-17T15:16:38.156Z,13.00
2023-04-17T15:19:05.022Z,12.90
2023-04-17T15:21:31.929Z,12.90
2023-04-17T15:23:58.828Z,12.90
2023-04-17T15:26:27.303Z,12.90
2023-04-17T15:28:54.181Z,12.90
2023-04-17T15:31:21.091Z,12.90
2023-04-17T15:33:48.045Z,12.90
2023-04-17T15:36:16.274Z,12.90
2023-04-17T15:38:44.057Z,12.90
2023-04-17T15:41:11.126Z,12.90
2023-04-17T15:43:38.563Z,12.90
2023-04-17T15:46:05.744Z,12.90
2023-04-17T15:48:32.763Z,12.90
2023-04-17T15:50:59.679Z,12.90
2023-04-17T15:53:26.720Z,12.90
2023-04-17T15:55:53.680Z,12.90
2023-04-17T15:58:20.512Z,12.90
2023-04-17T16:00:47.674Z,12.90
2023-04-17T16:03:14.922Z,12.90
2023-04-17T16:05:42.003Z,12.90
2023-04-17T16:08:09.014Z,12.90
2023-04-17T16:10:36.023Z,12.90
2023-04-17T16:13:02.916Z,12.90
2023-04-17T16:15:30.234Z,12.90
2023-04-17T16:17:57.148Z,12.90
2023-04-17T16:20:24.145Z,12.90
2023-04-17T16:22:50.995Z,12.80
2023-04-17T16:25:20.228Z,12.80
2023-04-17T16:27:47.711Z,12.80
2023-04-17T16:30:14.954Z,12.80
2023-04-17T16:32:41.899Z,12.80
2023-04-17T16:35:09.102Z,12.80
2023-04-17T16:37:36.158Z,12.80
2023-04-17T16:40:05.204Z,12.70
2023-04-17T16:42:32.657Z,12.70
2023-04-17T16:44:59.907Z,12.70
2023-04-17T16:47:29.662Z,12.70
2023-04-17T16:49:56.771Z,12.70
2023-04-17T16:52:24.535Z,12.60
2023-04-17T16:54:51.490Z,12.70
2023-04-17T16:57:18.752Z,12.60
2023-04-17T16:59:45.765Z,12.60
2023-04-17T17:02:12.718Z,12.60
2023-04-17T17:04:39.749Z,12.60
2023-04-17T17:07:06.745Z,12.60
2023-04-17T17:09:33.662Z,12.60
2023-04-17T17:12:00.815Z,12.50
2023-04-17T17:14:27.782Z,12.60
2023-04-17T17:16:54.989Z,12.50
2023-04-17T17:19:22.306Z,12.60
2023-04-17T17:21:50.027Z,12.50
2023-04-17T17:24:17.021Z,12.50
2023-04-17T17:26:43.937Z,12.50
2023-04-17T17:29:11.065Z,12.50
2023-04-17T17:31:38.647Z,12.50
2023-04-17T17:34:22.578Z,12.50
2023-04-17T17:36:51.941Z,12.50
2023-04-17T17:39:19.089Z,12.50
2023-04-17T17:41:47.394Z,12.50
2023-04-17T17:44:15.056Z,12.50
2023-04-17T17:46:42.302Z,12.50
2023-04-17T17:49:09.580Z,12.50
2023-04-17T17:51:36.845Z,12.50
2023-04-17T17:54:03.865Z,12.50
2023-04-17T17:56:30.811Z,12.40
2023-04-17T17:58:57.808Z,12.40
2023-04-17T18:01:25.164Z,12.40
2023-04-17T18:03:53.059Z,12.40
2023-04-17T18:06:20.880Z,12.40
2023-04-17T18:08:47.956Z,12.30
2023-04-17T18:11:15.303Z,12.30
2023-04-17T18:13:42.358Z,12.30
2023-04-17T18:16:09.626Z,12.30
2023-04-17T18:18:36.650Z,12.20
2023-04-17T18:21:07.886Z,12.20
2023-04-17T18:23:35.024Z,12.20
2023-04-17T18:26:03.477Z,12.20
2023-04-17T18:28:31.516Z,12.20
2023-04-17T18:30:58.648Z,12.10
2023-04-17T18:33:25.664Z,12.10
2023-04-17T18:35:52.673Z,12.20
2023-04-17T18:38:19.669Z,12.10
2023-04-17T18:40:46.646Z,12.10
2023-04-17T18:43:13.565Z,12.00
2023-04-17T18:45:40.725Z,12.00
2023-04-17T18:48:07.621Z,12.00
2023-04-17T18:50:34.783Z,12.00
2023-04-17T18:53:02.301Z,12.00
2023-04-17T18:55:29.607Z,11.90
2023-04-17T18:57:56.702Z,11.90
2023-04-17T19:00:23.794Z,11.90
2023-04-17T19:02:51.150Z,11.90
2023-04-17T19:05:20.381Z,11.90
2023-04-17T19:07:47.915Z,11.90
2023-04-17T19:10:14.917Z,11.80
2023-04-17T19:12:43.151Z,11.80
2023-04-17T19:15:11.361Z,11.80
2023-04-17T19:17:38.891Z,11.80
2023-04-17T19:20:06.673Z,11.80
2023-04-17T19:22:34.583Z,11.70
2023-04-17T19:25:01.563Z,11.70
2023-04-17T19:27:28.556Z,11.70
2023-04-17T19:29:56.937Z,11.70
2023-04-17T19:32:23.923Z,11.60
2023-04-17T19:34:50.951Z,11.60
2023-04-17T19:37:17.883Z,11.60
2023-04-17T19:39:45.525Z,11.60
2023-04-17T19:42:12.467Z,11.60
2023-04-17T19:44:39.440Z,11.60
2023-04-17T19:47:06.617Z,11.60
2023-04-17T19:49:33.686Z,11.50
2023-04-17T19:52:01.041Z,11.50
2023-04-17T19:54:28.093Z,11.50
2023-04-17T19:56:54.971Z,11.50
2023-04-17T19:59:22.033Z,11.50
2023-04-17T20:01:51.014Z,11.50
2023-04-17T20:04:18.615Z,11.50
2023-04-17T20:06:45.669Z,11.40
2023-04-17T20:09:14.827Z,11.40
2023-04-17T20:11:42.234Z,11.40
2023-04-17T20:14:09.207Z,11.40
2023-04-17T20:16:36.335Z,11.30
2023-04-17T20:19:03.300Z,11.30
2023-04-17T20:21:30.462Z,11.30
2023-04-17T20:23:59.375Z,11.30
2023-04-17T20:26:26.455Z,11.90
2023-04-17T20:28:54.800Z,11.20
2023-04-17T20:31:22.325Z,11.20
2023-04-17T20:33:49.361Z,11.20
2023-04-17T20:38:43.790Z,11.10
2023-04-17T20:41:10.711Z,11.10
2023-04-17T20:43:37.568Z,11.10
2023-04-17T20:46:06.933Z,12.10
2023-04-17T20:48:33.954Z,11.10
2023-04-17T20:51:05.880Z,11.10
2023-04-17T20:53:33.111Z,11.00
2023-04-17T20:56:00.128Z,11.00
2023-04-17T20:58:27.019Z,11.00
2023-04-17T21:01:00.522Z,11.00
2023-04-17T21:03:31.687Z,10.90
2023-04-17T21:05:59.309Z,11.00
2023-04-17T21:08:26.501Z,10.90
2023-04-17T21:10:53.454Z,10.90
2023-04-17T21:13:20.958Z,10.90
2023-04-17T21:15:47.821Z,11.80
2023-04-17T21:18:14.703Z,10.90
2023-04-17T21:20:42.010Z,10.90
2023-04-17T21:23:08.982Z,10.80
2023-04-17T21:25:35.888Z,10.80
2023-04-17T21:28:02.780Z,10.70
2023-04-17T21:30:29.675Z,10.60
2023-04-17T21:32:56.657Z,10.70
2023-04-17T21:35:23.629Z,10.70
2023-04-17T21:37:59.593Z,10.70
2023-04-17T21:40:32.550Z,10.70
2023-04-17T21:43:00.767Z,10.60
2023-04-17T21:45:27.717Z,10.60
2023-04-17T21:47:54.626Z,10.60
2023-04-17T21:50:21.523Z,10.60
2023-04-17T21:52:48.419Z,10.50
2023-04-17T21:55:15.273Z,10.60
2023-04-17T21:57:42.106Z,10.50
2023-04-17T22:00:12.501Z,11.90
2023-04-17T22:02:39.528Z,10.50
2023-04-17T22:05:06.717Z,10.60
2023-04-17T22:07:40.733Z,10.50
2023-04-17T22:10:14.606Z,11.10
2023-04-17T22:12:41.455Z,10.50
2023-04-17T22:15:08.954Z,10.50
2023-04-17T22:17:35.841Z,10.40
2023-04-17T22:20:03.459Z,10.50
2023-04-17T22:22:30.345Z,10.50
2023-04-17T22:24:57.209Z,10.50
2023-04-17T22:27:24.083Z,10.90
2023-04-17T22:29:50.990Z,10.80
2023-04-17T22:32:17.780Z,10.80
2023-04-17T22:34:48.868Z,10.90
2023-04-17T22:37:16.011Z,10.40
2023-04-17T22:39:42.844Z,10.40
2023-04-17T22:42:09.723Z,10.30
2023-04-17T22:44:36.877Z,10.30
2023-04-17T22:47:03.727Z,10.30
2023-04-17T22:49:30.861Z,10.30
2023-04-17T22:51:57.673Z,10.70
2023-04-17T22:54:24.736Z,10.30
2023-04-17T22:56:51.850Z,10.50
2023-04-17T22:59:18.707Z,10.20
2023-04-17T23:01:45.611Z,10.20
2023-04-17T23:04:13.395Z,11.00
2023-04-17T23:06:40.759Z,10.20
2023-04-17T23:09:07.651Z,10.10
2023-04-17T23:11:34.920Z,10.30
2023-04-17T23:14:03.026Z,10.10
2023-04-17T23:16:30.336Z,10.10
2023-04-17T23:18:57.237Z,10.10
2023-04-17T23:21:24.584Z,10.00
2023-04-17T23:23:52.083Z,10.00
2023-04-17T23:26:19.217Z,10.30
2023-04-17T23:28:46.023Z,10.00
2023-04-17T23:31:13.769Z,10.20
2023-04-17T23:33:40.673Z,10.00
2023-04-17T23:36:07.682Z,10.80
2023-04-17T23:38:34.610Z,10.00
2023-04-17T23:41:01.481Z,9.90
2023-04-17T23:43:28.329Z,9.90
2023-04-17T23:45:55.397Z,9.90
2023-04-17T23:48:23.025Z,10.90
2023-04-17T23:50:50.122Z,9.90
2023-04-17T23:53:16.989Z,10.20
2023-04-17T23:55:43.822Z,9.90
2023-04-17T23:58:11.108Z,10.30
